• Join FlightAware (Why Join?)
  • Login
  • US Flag 
09:02PM EDT


 

Airport Tracker/Info


-or-


 

Live Flight TrackerFlight Track Log ✈ SWA378 ✈ 13-May-2013 ✈ KBWI - KALB

Flight Track Log - Related Links

Times and Time Zones

All times are in EDT time to prevent confusion due to time zone crossing. See the SWA378 flight status page for this flight to view local times or setup timezone preferences in your user account.

Time Position Orientation Groundspeed Altitude Reporting Facility
EDT Latitude Longitude Course Direction KTS MPH feet Rate Location/Type
10:23PM 39.1833 -76.7167 135° Southeast 164 189 1,900  Level Potomac TRACON
10:26PM 39.1214 -76.6378 135° Southeast 139 160 8,200 3,060 Climbing Washington Center
10:27PM 39.1286 -76.5333 85° East 225 259 12,200 3,900 Climbing Washington Center
10:28PM 39.1356 -76.4211 85° East 265 305 15,900 3,420 Climbing Washington Center
10:29PM 39.1406 -76.3061 87° East 300 345 19,100 2,580 Climbing Washington Center
10:30PM 39.1183 -76.1881 104° East 321 369 21,100 1,440 Climbing Washington Center
10:31PM 39.1625 -76.0681 65° Northeast 338 389 22,000 1,440 Climbing Washington Center
10:32PM 39.2317 -75.9642 49° Northeast 338 389 24,100 2,100 Climbing Washington Center
10:33PM 39.3008 -75.8544 51° Northeast 369 425 26,300 1,920 Climbing Washington Center
10:34PM 39.3697 -75.7419 52° Northeast 385 443 28,000 1,200 Climbing Washington Center
10:35PM 39.4469 -75.6158 52° Northeast 415 478 28,800 240 Climbing Washington Center
10:37PM 39.6542 -75.2819 51° Northeast 472 543 29,000  Climbing New York Center
10:38PM 39.7244 -75.1839 47° Northeast 472 543 29,000  Level New York Center
10:39PM 39.8172 -75.0439 49° Northeast 467 537 29,000  Level New York Center
10:40PM 39.9050 -74.9192 47° Northeast 461 531 29,000  Level New York Center
10:41PM 39.9989 -74.8003 44° Northeast 461 531 29,000  Level New York Center
10:42PM 40.1006 -74.6867 41° Northeast 461 531 29,000  Level New York Center
10:43PM 40.1983 -74.5725 42° Northeast 467 537 29,000  Level New York Center
10:44PM 40.2981 -74.4475 44° Northeast 473 544 29,000  Level New York Center
10:45PM 40.3975 -74.3303 42° Northeast 478 550 29,000  Level New York Center
10:47PM 40.6025 -74.0828 42° Northeast 486 559 29,000 -1,020 Level Boston Center
10:48PM 40.7147 -73.9542 41° Northeast 475 547 26,000 -2,520 Descending Boston Center
10:49PM 40.8142 -73.8358 42° Northeast 475 547 24,000 -1,020 Descending Boston Center
10:50PM 40.9031 -73.7281 42° Northeast 462 532 24,000 -180 Level Boston Center
10:51PM 41.0078 -73.6778 20° North 425 489 23,700 -540 Descending Boston Center
10:52PM 41.1244 -73.6717 North 403 464 23,000 -1,020 Descending Boston Center
10:53PM 41.2267 -73.6708 360° North 392 451 21,700 -1,500 Descending Boston Center
10:54PM 41.3289 -73.6675 North 369 425 20,000 -900 Descending Boston Center
10:55PM 41.4350 -73.6667 360° North 369 425 20,000  Level Boston Center
10:56PM 41.5225 -73.6711 358° North 369 425 20,000  Level Boston Center
10:57PM 41.6392 -73.6872 354° North 379 436 20,000 -60 Level Boston Center
10:58PM 41.7578 -73.7008 355° North 384 442 19,900 -1,200 Descending Boston Center
10:59PM 41.8597 -73.7139 355° North 378 435 17,700 -2,520 Descending Boston Center
11:00PM 41.9556 -73.7269 354° North 358 412 15,000 -2,640 Descending Boston Center
11:01PM 42.0136 -73.7311 357° North 347 399 13,600 -2,280 Descending Boston Center
11:01PM 42.0553 -73.7375 354° North 359 413 12,700 -1,800 Descending Boston Center
11:02PM 42.1075 -73.7442 355° North 338 389 11,800 -1,200 Descending Boston Center
11:02PM 42.1450 -73.7450 359° North 330 380 11,500 -840 Descending Boston Center
11:03PM 42.1969 -73.7544 352° North 284 327 11,000 -1,020 Descending Boston Center
11:03PM 42.2239 -73.7550 359° North 300 345 10,500 -1,320 Descending Boston Center
11:04PM 42.2717 -73.7644 352° North 265 305 9,700 -1,620 Descending Boston Center
11:04PM 42.2967 -73.7650 359° North 270 311 8,900 -1,800 Descending Boston Center
11:05PM 42.3447 -73.7744 352° North 264 304 7,900 -1,620 Descending Boston Center
11:06PM 42.4175 -73.7844 354° North 265 305 6,300 -1,620 Descending Boston Center
11:07PM 42.4903 -73.7889 357° North 260 299 4,700 -1,380 Descending Boston Center
11:08PM 42.5589 -73.8014 352° North 252 290 3,600 -1,080 Descending Boston Center
11:09PM 42.6214 -73.8000 North 212 244 2,600 -960 Descending Boston Center
11:10PM 42.6694 -73.8039 357° North 150 173 1,700 -840 Descending Boston Center
11:11PM 42.7028 -73.8075 355° North 111 128 1,000 -720 Descending Boston Center
11:13PM 42.7333 -73.8000 350° North  Level FlightAware Approximate